createdAt,value
2022-11-16T00:00:41.046Z,1.70
2022-11-16T00:03:43.723Z,1.47
2022-11-16T00:06:46.630Z,1.67
2022-11-16T00:09:48.557Z,1.90
2022-11-16T00:12:50.386Z,1.70
2022-11-16T00:15:57.006Z,1.63
2022-11-16T00:19:00.664Z,1.33
2022-11-16T00:22:03.180Z,1.90
2022-11-16T00:25:05.758Z,1.60
2022-11-16T00:28:07.756Z,1.10
2022-11-16T00:31:10.730Z,1.67
2022-11-16T00:34:13.180Z,1.37
2022-11-16T00:37:15.024Z,1.33
2022-11-16T00:40:17.045Z,1.40
2022-11-16T00:43:19.060Z,1.73
2022-11-16T00:46:21.630Z,1.40
2022-11-16T00:49:23.500Z,1.50
2022-11-16T00:52:25.466Z,1.60
2022-11-16T00:55:27.285Z,1.73
2022-11-16T00:58:29.686Z,1.37
2022-11-16T01:01:31.643Z,1.53
2022-11-16T01:04:34.146Z,1.27
2022-11-16T01:07:37.496Z,1.50
2022-11-16T01:10:41.018Z,1.17
2022-11-16T01:13:42.894Z,1.30
2022-11-16T01:16:45.653Z,1.30
2022-11-16T01:19:47.530Z,1.37
2022-11-16T01:22:49.523Z,1.17
2022-11-16T01:26:03.872Z,1.93
2022-11-16T01:29:06.042Z,1.83
2022-11-16T01:32:07.877Z,1.33
2022-11-16T01:35:11.718Z,1.50
2022-11-16T01:38:13.571Z,1.37
2022-11-16T01:41:20.095Z,1.17
2022-11-16T01:44:34.217Z,1.50
2022-11-16T01:47:36.171Z,1.30
2022-11-16T01:50:38.831Z,3.60
2022-11-16T01:53:41.511Z,1.60
2022-11-16T01:56:46.280Z,1.80
2022-11-16T01:59:49.403Z,1.57
2022-11-16T02:02:51.775Z,1.90
2022-11-16T02:06:09.030Z,1.53
2022-11-16T02:09:32.681Z,1.57
2022-11-16T02:12:49.489Z,2.13
2022-11-16T02:15:56.141Z,1.60
2022-11-16T02:19:27.073Z,1.93
2022-11-16T02:23:08.269Z,1.37
2022-11-16T02:26:34.734Z,1.50
2022-11-16T02:29:40.316Z,1.17
2022-11-16T02:32:45.008Z,1.60
2022-11-16T02:35:53.018Z,1.60
2022-11-16T02:39:05.474Z,1.57
2022-11-16T02:42:11.378Z,1.80
2022-11-16T02:45:18.942Z,1.70
2022-11-16T02:48:25.146Z,1.50
2022-11-16T02:51:28.268Z,1.73
2022-11-16T02:54:30.103Z,1.50
2022-11-16T02:57:43.119Z,1.67
2022-11-16T03:00:55.105Z,2.90
2022-11-16T03:04:41.458Z,1.83
2022-11-16T03:07:49.491Z,1.70
2022-11-16T03:11:16.634Z,1.60
2022-11-16T03:14:21.390Z,1.73
2022-11-16T03:17:38.853Z,1.40
2022-11-16T03:20:41.609Z,1.50
2022-11-16T03:23:45.559Z,1.00
2022-11-16T03:27:14.155Z,1.10
2022-11-16T03:30:23.899Z,0.90
2022-11-16T03:33:29.453Z,1.50
2022-11-16T03:36:34.613Z,1.40
2022-11-16T03:39:39.039Z,1.50
2022-11-16T03:42:42.640Z,1.30
2022-11-16T03:45:45.768Z,1.60
2022-11-16T03:48:47.749Z,1.33
2022-11-16T03:51:51.013Z,1.30
2022-11-16T03:54:53.129Z,1.27
2022-11-16T03:57:55.037Z,1.20
2022-11-16T04:00:57.083Z,1.30
2022-11-16T04:03:59.065Z,1.30
2022-11-16T04:07:19.815Z,1.20
2022-11-16T04:10:40.488Z,1.83
2022-11-16T04:14:04.131Z,1.30
2022-11-16T04:17:36.158Z,1.20
2022-11-16T04:21:04.553Z,1.27
2022-11-16T04:24:14.146Z,1.23
2022-11-16T04:27:36.060Z,1.07
2022-11-16T04:30:56.453Z,1.20
2022-11-16T04:34:17.159Z,1.30
2022-11-16T04:37:38.184Z,1.10
2022-11-16T04:40:40.092Z,1.10
2022-11-16T04:43:41.914Z,1.33
2022-11-16T04:47:02.479Z,1.10
2022-11-16T04:50:04.859Z,1.93
2022-11-16T04:53:07.332Z,1.77
2022-11-16T04:56:09.236Z,1.70
2022-11-16T04:59:11.468Z,2.20
2022-11-16T05:02:13.414Z,2.80
2022-11-16T05:05:15.740Z,4.20
2022-11-16T05:08:17.605Z,4.20
2022-11-16T05:11:19.982Z,4.23
2022-11-16T05:14:21.915Z,4.40
2022-11-16T05:17:25.350Z,4.17
2022-11-16T05:20:45.729Z,4.50
2022-11-16T05:24:16.668Z,4.80
2022-11-16T05:27:19.491Z,4.60
2022-11-16T05:30:21.776Z,5.50
2022-11-16T05:33:23.774Z,6.23
2022-11-16T05:36:25.659Z,6.17
2022-11-16T05:39:27.617Z,6.27
2022-11-16T05:42:30.080Z,7.40
2022-11-16T05:45:31.969Z,7.07
2022-11-16T05:48:34.358Z,8.57
2022-11-16T05:51:37.665Z,7.30
2022-11-16T05:54:40.065Z,6.93
2022-11-16T05:57:41.984Z,6.53
2022-11-16T06:00:46.640Z,6.80
2022-11-16T06:03:48.530Z,7.33
2022-11-16T06:06:51.079Z,6.80
2022-11-16T06:09:55.471Z,6.70
2022-11-16T06:12:57.505Z,7.40
2022-11-16T06:16:00.095Z,7.23
2022-11-16T06:19:02.131Z,6.70
2022-11-16T06:22:03.981Z,6.63
2022-11-16T06:25:11.151Z,6.90
2022-11-16T06:28:13.101Z,6.63
2022-11-16T06:31:15.741Z,7.00
2022-11-16T06:34:17.569Z,7.93
2022-11-16T06:37:19.430Z,8.17
2022-11-16T06:40:21.425Z,8.17
2022-11-16T06:43:24.390Z,7.17
2022-11-16T06:46:26.342Z,7.70
2022-11-16T06:49:28.272Z,7.67
2022-11-16T06:52:30.751Z,7.83
2022-11-16T06:55:32.996Z,7.13
2022-11-16T06:58:35.110Z,8.50
2022-11-16T07:01:38.088Z,7.50
2022-11-16T07:04:40.012Z,7.90
2022-11-16T07:07:41.924Z,10.30
2022-11-16T07:10:43.752Z,9.93
2022-11-16T07:13:46.071Z,8.60
2022-11-16T07:16:48.211Z,8.57
2022-11-16T07:19:50.198Z,7.33
2022-11-16T07:22:52.113Z,8.03
2022-11-16T07:25:54.335Z,8.37
2022-11-16T07:28:56.151Z,7.80
2022-11-16T07:31:58.156Z,8.13
2022-11-16T07:35:00.081Z,9.23
2022-11-16T07:38:02.170Z,8.10
2022-11-16T07:41:06.165Z,8.87
2022-11-16T07:44:12.037Z,7.93
2022-11-16T07:47:14.232Z,6.97
2022-11-16T07:50:17.016Z,7.07
2022-11-16T07:53:18.861Z,7.47
2022-11-16T07:56:20.711Z,5.93
2022-11-16T07:59:23.105Z,8.50
2022-11-16T08:02:25.113Z,9.70
2022-11-16T08:05:27.008Z,10.13
2022-11-16T08:08:29.135Z,10.23
2022-11-16T08:11:31.126Z,9.63
2022-11-16T08:14:33.037Z,9.43
2022-11-16T08:17:34.905Z,8.93
2022-11-16T08:20:37.492Z,9.60
2022-11-16T08:23:40.513Z,9.70
2022-11-16T08:26:42.433Z,9.13
2022-11-16T08:29:44.290Z,9.07
2022-11-16T08:32:46.751Z,8.57
2022-11-16T08:35:48.663Z,9.83
2022-11-16T08:38:51.680Z,9.97
2022-11-16T08:41:53.538Z,10.10
2022-11-16T08:44:55.436Z,9.73
2022-11-16T08:48:03.364Z,9.70
2022-11-16T08:51:23.782Z,8.90
2022-11-16T08:54:25.614Z,10.17
2022-11-16T08:57:27.550Z,9.37
2022-11-16T09:00:29.450Z,9.03
2022-11-16T09:03:32.091Z,8.60
2022-11-16T09:06:36.430Z,8.60
2022-11-16T09:09:38.887Z,5.33
2022-11-16T09:12:40.856Z,4.77
2022-11-16T09:15:43.293Z,5.87
2022-11-16T09:18:48.519Z,7.87
2022-11-16T09:21:50.636Z,9.27
2022-11-16T09:24:52.450Z,9.33
2022-11-16T09:27:57.500Z,8.63
2022-11-16T09:31:02.466Z,9.07
2022-11-16T09:34:04.376Z,9.20
2022-11-16T09:37:06.345Z,8.13
2022-11-16T09:40:08.915Z,6.70
2022-11-16T09:43:19.175Z,6.37
2022-11-16T09:46:26.533Z,6.00
2022-11-16T09:49:34.125Z,5.67
2022-11-16T09:52:43.777Z,4.33
2022-11-16T09:55:58.999Z,3.80
2022-11-16T09:59:15.091Z,3.10
2022-11-16T10:02:28.957Z,4.03
2022-11-16T10:05:44.001Z,4.27
2022-11-16T10:08:51.730Z,3.80
2022-11-16T10:12:08.697Z,4.33
2022-11-16T10:15:12.029Z,4.37
2022-11-16T10:18:23.846Z,3.93
2022-11-16T10:22:01.147Z,3.60
2022-11-16T10:25:15.670Z,3.50
2022-11-16T10:28:35.116Z,3.50
2022-11-16T10:32:04.968Z,3.20
2022-11-16T10:35:17.343Z,3.80
2022-11-16T10:38:23.134Z,3.77
2022-11-16T10:41:32.425Z,4.00
2022-11-16T10:44:45.304Z,3.67
2022-11-16T10:47:54.113Z,3.77
2022-11-16T10:50:56.365Z,2.90
2022-11-16T10:53:58.185Z,3.53
2022-11-16T10:57:05.928Z,5.17
2022-11-16T11:00:12.884Z,3.90
2022-11-16T11:03:30.623Z,3.93
2022-11-16T11:06:32.604Z,3.53
2022-11-16T11:09:39.395Z,3.23
2022-11-16T11:12:41.645Z,3.00
2022-11-16T11:15:44.215Z,3.93
2022-11-16T11:18:46.193Z,4.10
2022-11-16T11:21:48.698Z,3.83
2022-11-16T11:24:50.700Z,4.10
2022-11-16T11:28:05.359Z,3.60
2022-11-16T11:31:12.021Z,3.40
2022-11-16T11:34:31.686Z,3.13
2022-11-16T11:37:37.751Z,3.30
2022-11-16T11:40:39.914Z,3.33
2022-11-16T11:43:42.280Z,3.57
2022-11-16T11:47:42.484Z,3.30
2022-11-16T11:50:33.488Z,3.50
2022-11-16T11:53:51.700Z,3.60
2022-11-16T11:56:53.605Z,4.17
2022-11-16T11:59:55.610Z,3.93
2022-11-16T12:03:19.756Z,4.10
2022-11-16T12:06:44.362Z,4.10
2022-11-16T12:10:01.220Z,5.57
2022-11-16T12:13:22.496Z,4.10
2022-11-16T12:16:43.392Z,4.40
2022-11-16T12:20:11.562Z,4.90
2022-11-16T12:23:33.295Z,3.93
2022-11-16T12:27:12.915Z,4.65
2022-11-16T12:30:24.680Z,4.17
2022-11-16T12:33:43.361Z,3.97
2022-11-16T12:37:01.009Z,4.17
2022-11-16T12:40:31.354Z,4.13
2022-11-16T12:44:01.048Z,4.07
2022-11-16T12:47:37.094Z,3.83
2022-11-16T12:50:50.369Z,3.43
2022-11-16T12:53:55.899Z,3.30
2022-11-16T12:57:25.298Z,3.77
2022-11-16T13:00:28.932Z,3.40
2022-11-16T13:03:39.796Z,3.13
2022-11-16T13:06:52.817Z,4.20
2022-11-16T13:10:13.907Z,3.87
2022-11-16T13:13:36.050Z,3.60
2022-11-16T13:16:39.079Z,3.57
2022-11-16T13:19:42.860Z,3.47
2022-11-16T13:22:54.645Z,3.57
2022-11-16T13:26:16.709Z,5.33
2022-11-16T13:29:41.324Z,3.07
2022-11-16T13:33:12.418Z,2.90
2022-11-16T13:36:45.956Z,2.50
2022-11-16T13:39:51.448Z,3.10
2022-11-16T13:43:10.000Z,3.33
2022-11-16T13:46:27.687Z,3.87
2022-11-16T13:49:35.911Z,2.87
2022-11-16T13:53:36.368Z,4.83
2022-11-16T13:56:08.876Z,2.63
2022-11-16T13:59:15.670Z,2.60
2022-11-16T14:02:34.201Z,2.53
2022-11-16T14:05:42.220Z,3.10
2022-11-16T14:08:46.754Z,2.53
2022-11-16T14:11:48.829Z,2.00
2022-11-16T14:15:16.514Z,2.63
2022-11-16T14:18:40.128Z,2.63
2022-11-16T14:21:53.484Z,2.10
2022-11-16T14:25:02.280Z,2.43
2022-11-16T14:28:33.938Z,2.30
2022-11-16T14:31:49.494Z,2.50
2022-11-16T14:34:56.029Z,2.40
2022-11-16T14:38:01.909Z,2.40
2022-11-16T14:41:06.772Z,2.87
2022-11-16T14:44:09.700Z,5.20
2022-11-16T14:47:24.581Z,5.00
2022-11-16T14:50:27.528Z,4.50
2022-11-16T14:53:29.779Z,3.50
2022-11-16T14:56:31.883Z,2.90
2022-11-16T14:59:33.977Z,2.70
2022-11-16T15:02:36.582Z,1.10
2022-11-16T15:05:38.521Z,0.93
2022-11-16T15:08:47.687Z,1.30
2022-11-16T15:12:09.017Z,1.80
2022-11-16T15:15:11.389Z,2.13
2022-11-16T15:18:18.131Z,1.07
2022-11-16T15:21:23.800Z,1.00
2022-11-16T15:24:31.041Z,1.10
2022-11-16T15:27:38.934Z,1.73
2022-11-16T15:30:41.505Z,1.40
2022-11-16T15:33:44.949Z,1.37
2022-11-16T15:36:48.107Z,1.10
2022-11-16T15:39:50.120Z,1.70
2022-11-16T15:42:53.471Z,5.60
2022-11-16T15:45:55.485Z,4.90
2022-11-16T15:48:57.983Z,3.60
2022-11-16T15:52:00.731Z,3.77
2022-11-16T15:55:05.558Z,3.70
2022-11-16T15:58:13.388Z,3.50
2022-11-16T16:01:16.067Z,4.40
2022-11-16T16:04:18.603Z,4.47
2022-11-16T16:07:40.924Z,5.87
2022-11-16T16:10:43.904Z,1.80
2022-11-16T16:13:58.321Z,1.90
2022-11-16T16:17:01.125Z,1.50
2022-11-16T16:20:05.304Z,1.33
2022-11-16T16:23:15.439Z,1.37
2022-11-16T16:26:17.931Z,2.57
2022-11-16T16:29:19.876Z,2.73
2022-11-16T16:32:31.825Z,3.57
2022-11-16T16:35:34.074Z,5.33
2022-11-16T16:38:35.923Z,4.53
2022-11-16T16:41:38.239Z,4.30
2022-11-16T16:44:41.195Z,3.40
2022-11-16T16:47:43.111Z,2.40
2022-11-16T16:50:45.025Z,3.30
2022-11-16T16:53:47.204Z,3.47
2022-11-16T16:56:49.030Z,3.70
2022-11-16T16:59:51.145Z,8.70
2022-11-16T17:02:53.160Z,7.30
2022-11-16T17:06:00.173Z,6.37
2022-11-16T17:09:02.019Z,5.43
2022-11-16T17:12:04.901Z,4.33
2022-11-16T17:15:07.286Z,4.60
2022-11-16T17:18:09.367Z,3.00
2022-11-16T17:21:11.454Z,3.50
2022-11-16T17:24:13.893Z,2.60
2022-11-16T17:27:15.756Z,2.63
2022-11-16T17:30:17.920Z,2.20
2022-11-16T17:33:19.760Z,1.90
2022-11-16T17:36:21.724Z,1.73
2022-11-16T17:39:25.242Z,2.80
2022-11-16T17:42:27.175Z,2.23
2022-11-16T17:45:29.010Z,2.27
2022-11-16T17:48:30.959Z,2.27
2022-11-16T17:51:32.870Z,2.10
2022-11-16T17:54:36.301Z,2.40
2022-11-16T17:57:42.814Z,2.07
2022-11-16T18:00:55.520Z,2.60
2022-11-16T18:04:02.676Z,2.70
2022-11-16T18:07:09.467Z,2.33
2022-11-16T18:10:17.873Z,2.80
2022-11-16T18:13:21.983Z,3.40
2022-11-16T18:16:26.357Z,3.37
2022-11-16T18:19:33.011Z,3.30
2022-11-16T18:22:37.613Z,2.70
2022-11-16T18:26:05.972Z,2.47
2022-11-16T18:29:12.974Z,1.90
2022-11-16T18:32:16.403Z,3.77
2022-11-16T18:35:20.797Z,3.57
2022-11-16T18:38:22.758Z,3.77
2022-11-16T18:41:26.865Z,2.57
2022-11-16T18:44:28.810Z,2.80
2022-11-16T18:47:30.693Z,2.73
2022-11-16T18:50:32.606Z,2.40
2022-11-16T18:53:35.166Z,1.50
2022-11-16T18:56:38.015Z,1.97
2022-11-16T18:59:39.855Z,3.10
2022-11-16T19:02:41.877Z,2.43
2022-11-16T19:05:44.090Z,2.57
2022-11-16T19:08:53.982Z,2.30
2022-11-16T19:11:57.457Z,3.20
2022-11-16T19:14:59.790Z,2.50
2022-11-16T19:18:20.693Z,2.13
2022-11-16T19:21:32.502Z,1.33
2022-11-16T19:24:35.921Z,1.90
2022-11-16T19:27:37.912Z,1.80
2022-11-16T19:30:42.551Z,2.20
2022-11-16T19:33:45.501Z,2.10
2022-11-16T19:36:47.605Z,2.00
2022-11-16T19:39:49.944Z,2.00
2022-11-16T19:42:53.065Z,1.30
2022-11-16T19:45:55.010Z,2.00
2022-11-16T19:48:58.623Z,2.03
2022-11-16T19:52:00.860Z,1.90
2022-11-16T19:55:04.666Z,2.20
2022-11-16T19:58:09.142Z,2.50
2022-11-16T20:01:15.875Z,2.27
2022-11-16T20:04:19.011Z,2.77
2022-11-16T20:07:21.441Z,3.37
2022-11-16T20:10:23.340Z,3.33
2022-11-16T20:13:25.219Z,3.13
2022-11-16T20:16:38.425Z,3.77
2022-11-16T20:19:44.204Z,4.33
2022-11-16T20:22:50.869Z,3.60
2022-11-16T20:25:52.729Z,3.73
2022-11-16T20:28:55.097Z,3.27
2022-11-16T20:31:56.912Z,2.50
2022-11-16T20:34:58.821Z,3.00
2022-11-16T20:38:00.719Z,1.77
2022-11-16T20:41:09.745Z,1.47
2022-11-16T20:44:16.512Z,1.80
2022-11-16T20:47:19.370Z,2.03
2022-11-16T20:50:21.319Z,1.60
2022-11-16T20:53:23.548Z,1.90
2022-11-16T20:56:25.522Z,2.10
2022-11-16T20:59:28.668Z,1.53
2022-11-16T21:02:30.736Z,1.80
2022-11-16T21:05:32.792Z,1.80
2022-11-16T21:08:36.477Z,2.57
2022-11-16T21:11:57.294Z,1.50
2022-11-16T21:14:59.339Z,1.50
2022-11-16T21:18:01.744Z,1.40
2022-11-16T21:21:07.158Z,1.40
2022-11-16T21:24:09.972Z,1.83
2022-11-16T21:27:12.738Z,2.00
2022-11-16T21:30:15.938Z,2.27
2022-11-16T21:33:17.830Z,2.60
2022-11-16T21:36:24.914Z,2.23
2022-11-16T21:39:27.887Z,2.27
2022-11-16T21:42:30.044Z,2.23
2022-11-16T21:45:31.873Z,2.10
2022-11-16T21:48:37.374Z,2.00
2022-11-16T21:51:39.613Z,2.33
2022-11-16T21:54:49.508Z,1.90
2022-11-16T21:57:51.330Z,1.80
2022-11-16T22:01:01.178Z,2.33
2022-11-16T22:04:21.572Z,1.57
2022-11-16T22:07:38.872Z,1.90
2022-11-16T22:10:40.698Z,1.60
2022-11-16T22:13:44.709Z,1.70
2022-11-16T22:16:46.583Z,1.60
2022-11-16T22:19:49.158Z,2.20
2022-11-16T22:22:50.954Z,1.37
2022-11-16T22:25:53.098Z,1.90
2022-11-16T22:28:55.528Z,2.33
2022-11-16T22:32:00.849Z,2.50
2022-11-16T22:35:02.747Z,2.30
2022-11-16T22:38:05.599Z,2.30
2022-11-16T22:41:07.493Z,1.93
2022-11-16T22:44:09.393Z,2.60
2022-11-16T22:47:11.219Z,2.07
2022-11-16T22:50:13.477Z,2.63
2022-11-16T22:53:15.389Z,2.20
2022-11-16T22:56:17.329Z,2.03
2022-11-16T22:59:19.285Z,1.40
2022-11-16T23:02:21.209Z,1.50
2022-11-16T23:05:23.082Z,1.40
2022-11-16T23:08:25.136Z,1.10
2022-11-16T23:11:45.971Z,1.53
2022-11-16T23:15:06.794Z,1.33
2022-11-16T23:18:08.630Z,1.30
2022-11-16T23:21:29.330Z,1.47
2022-11-16T23:24:49.786Z,1.50
2022-11-16T23:28:06.152Z,1.50
2022-11-16T23:31:07.955Z,1.50
2022-11-16T23:34:09.816Z,1.77
2022-11-16T23:37:11.974Z,2.23
2022-11-16T23:40:14.030Z,2.13
2022-11-16T23:43:34.882Z,2.70
2022-11-16T23:46:37.380Z,2.13
2022-11-16T23:49:39.270Z,1.90
2022-11-16T23:52:42.744Z,2.20
2022-11-16T23:55:44.604Z,2.63
2022-11-16T23:58:46.772Z,2.63
